Time;durP1;ratioP1;P1;durP2;ratioP2;P2;SDS_P1;SDS_P2;PMS_P1;PMS_P2;Temp;Humidity;BMP_temperature;BMP_pressure;BME280_temperature;BME280_humidity;BME280_pressure;Samples;Min_cycle;Max_cycle;Signal;HPM_P1;HPM_P2
2021/04/19 00:01:46;;;;;;;0.70;0.70;;;6.70;96.30;;;;;;5009201;28;20030;-87
2021/04/19 00:04:12;;;;;;;0.20;0.20;;;6.60;96.40;;;;;;5002284;28;20034;-86
2021/04/19 00:06:39;;;;;;;0.55;0.55;;;6.70;96.30;;;;;;5008876;28;20536;-86
2021/04/19 00:09:05;;;;;;;0.70;0.70;;;6.80;96.50;;;;;;4991828;28;20029;-87
2021/04/19 00:11:31;;;;;;;0.90;0.90;;;6.80;96.40;;;;;;4991839;28;20465;-87
2021/04/19 00:13:57;;;;;;;1.17;1.07;;;6.80;96.40;;;;;;4994215;28;20034;-87
2021/04/19 00:16:23;;;;;;;0.65;0.57;;;6.70;96.90;;;;;;5006356;28;20838;-87
2021/04/19 00:18:49;;;;;;;0.70;0.40;;;6.50;97.00;;;;;;4991151;28;20476;-87
2021/04/19 00:21:14;;;;;;;0.30;0.30;;;6.50;97.40;;;;;;4998178;28;20140;-87
2021/04/19 00:23:40;;;;;;;1.27;1.17;;;6.70;97.30;;;;;;4998043;28;20577;-87
2021/04/19 00:26:06;;;;;;;0.47;0.47;;;7.00;96.60;;;;;;4990807;28;20117;-87
2021/04/19 00:28:32;;;;;;;0.52;0.52;;;6.70;96.90;;;;;;4997485;28;20084;-88
2021/04/19 00:30:58;;;;;;;0.28;0.28;;;6.70;96.70;;;;;;4992834;28;20041;-88
2021/04/19 00:33:24;;;;;;;2.13;1.17;;;6.50;97.40;;;;;;5001163;28;20031;-88
2021/04/19 00:35:50;;;;;;;0.43;0.43;;;6.70;97.20;;;;;;4992117;28;20041;-88
2021/04/19 00:38:16;;;;;;;1.40;0.90;;;6.60;97.60;;;;;;4996487;28;20034;-87
2021/04/19 00:40:43;;;;;;;0.30;0.30;;;6.60;97.50;;;;;;5013269;28;20063;-87
2021/04/19 00:43:09;;;;;;;0.43;0.43;;;6.50;97.80;;;;;;4997484;28;20487;-86
2021/04/19 00:45:35;;;;;;;0.60;0.60;;;6.40;98.40;;;;;;5011398;28;20449;-87
2021/04/19 00:48:02;;;;;;;0.43;0.43;;;6.20;98.50;;;;;;5001527;28;20026;-87
2021/04/19 00:50:32;;;;;;;1.17;0.63;;;6.40;98.20;;;;;;4993169;28;20080;-89
2021/04/19 00:53:03;;;;;;;0.52;0.52;;;6.50;98.40;;;;;;4998971;28;20108;-87
2021/04/19 00:55:30;;;;;;;0.10;0.10;;;6.20;99.00;;;;;;5006650;28;20034;-87
2021/04/19 00:57:55;;;;;;;1.40;0.83;;;6.10;99.30;;;;;;4992617;28;20569;-87
2021/04/19 01:00:28;;;;;;;0.77;0.77;;;6.20;99.30;;;;;;5014733;28;20035;-86
2021/04/19 01:02:54;;;;;;;0.30;0.30;;;6.00;99.40;;;;;;4996826;28;20030;-87
2021/04/19 01:05:28;;;;;;;0.40;0.28;;;5.90;99.60;;;;;;4993932;28;20026;-85
2021/04/19 01:07:53;;;;;;;0.20;0.20;;;5.90;99.90;;;;;;5004724;28;20054;-85
2021/04/19 01:10:20;;;;;;;0.20;0.20;;;6.00;99.90;;;;;;4994314;28;20062;-86
2021/04/19 01:12:46;;;;;;;0.67;0.67;;;6.70;98.40;;;;;;5000538;28;20034;-85
2021/04/19 01:15:15;;;;;;;0.50;0.50;;;5.90;99.70;;;;;;5001614;28;20399;-86
2021/04/19 01:17:45;;;;;;;6.70;2.67;;;6.00;99.90;;;;;;5008318;28;20161;-85
2021/04/19 01:20:14;;;;;;;0.40;0.40;;;6.00;99.90;;;;;;4993308;28;20469;-86
2021/04/19 01:22:41;;;;;;;0.68;0.68;;;6.10;99.90;;;;;;5004628;28;20047;-85
2021/04/19 01:25:08;;;;;;;0.10;0.10;;;6.20;99.90;;;;;;4997519;28;20026;-85
2021/04/19 01:27:35;;;;;;;0.57;0.57;;;6.00;99.90;;;;;;5020380;28;20125;-85
2021/04/19 01:30:02;;;;;;;0.25;0.25;;;6.70;99.50;;;;;;5008366;28;20029;-86
2021/04/19 01:32:29;;;;;;;0.40;0.40;;;6.10;99.90;;;;;;5001532;28;20529;-85
2021/04/19 01:34:54;;;;;;;0.45;0.45;;;6.60;99.50;;;;;;4993411;28;20525;-85
2021/04/19 01:37:20;;;;;;;0.88;0.75;;;6.60;99.60;;;;;;4996512;28;20037;-84
2021/04/19 01:39:46;;;;;;;0.28;0.28;;;5.70;99.90;;;;;;4999765;28;20038;-85
2021/04/19 01:42:12;;;;;;;12.73;1.48;;;6.50;99.90;;;;;;5001253;28;20072;-84
2021/04/19 01:44:38;;;;;;;0.55;0.55;;;7.00;99.30;;;;;;5003291;28;20034;-85
2021/04/19 01:47:04;;;;;;;0.40;0.40;;;6.90;98.80;;;;;;5015057;28;20034;-85
2021/04/19 01:49:31;;;;;;;0.80;0.80;;;6.20;99.90;;;;;;4997013;28;20096;-85
2021/04/19 01:51:57;;;;;;;0.60;0.60;;;6.70;99.80;;;;;;4993782;28;20117;-85
2021/04/19 01:54:23;;;;;;;0.40;0.40;;;6.20;99.90;;;;;;4991859;28;20034;-85
2021/04/19 01:56:49;;;;;;;0.98;0.98;;;6.40;99.90;;;;;;4994483;28;20536;-85
2021/04/19 01:59:15;;;;;;;1.15;1.15;;;6.60;99.90;;;;;;4997409;28;20038;-85
2021/04/19 02:02:07;;;;;;;0.30;0.30;;;6.20;99.90;;;;;;4993555;28;20398;-85
2021/04/19 02:04:58;;;;;;;1.45;1.17;;;6.10;99.90;;;;;;5004395;28;20089;-85
2021/04/19 02:08:18;;;;;;;0.75;0.75;;;6.50;99.90;;;;;;4990364;28;20497;-86
2021/04/19 02:10:55;;;;;;;0.20;0.20;;;5.90;99.90;;;;;;4978100;28;20797;-86
2021/04/19 02:13:21;;;;;;;;;;;6.30;99.90;;;;;;4984896;28;20042;-86
2021/04/19 02:16:01;;;;;;;0.33;0.33;;;6.40;99.90;;;;;;4985927;28;19914;-86
2021/04/19 02:18:35;;;;;;;0.20;0.20;;;6.20;99.90;;;;;;4986509;28;20130;-85
2021/04/19 02:21:42;;;;;;;0.80;0.80;;;6.40;99.90;;;;;;4988957;28;20105;-86
2021/04/19 02:24:15;;;;;;;0.22;0.22;;;6.20;99.90;;;;;;4958479;28;20126;-86
2021/04/19 02:26:48;;;;;;;0.50;0.50;;;6.00;99.90;;;;;;4961076;28;20086;-85
2021/04/19 02:29:24;;;;;;;1.50;1.45;;;5.90;99.90;;;;;;4950199;28;20571;-84
2021/04/19 02:31:59;;;;;;;0.20;0.20;;;6.00;99.90;;;;;;4960052;28;20042;-84
2021/04/19 02:34:30;;;;;;;0.80;0.80;;;5.80;99.90;;;;;;4966908;28;20042;-86
2021/04/19 02:36:57;;;;;;;1.48;0.90;;;5.70;99.90;;;;;;4948439;28;20034;-86
2021/04/19 02:39:34;;;;;;;0.82;0.82;;;5.50;99.90;;;;;;4963171;28;20134;-86
2021/04/19 02:42:01;;;;;;;0.65;0.65;;;5.30;99.90;;;;;;4949220;28;20039;-85
2021/04/19 02:44:29;;;;;;;2.03;0.80;;;5.70;99.90;;;;;;4966262;28;20031;-85
2021/04/19 02:46:56;;;;;;;0.50;0.50;;;5.20;99.90;;;;;;4990024;28;20863;-85
2021/04/19 02:49:22;;;;;;;;;;;5.30;99.90;;;;;;4989762;28;20559;-86
2021/04/19 02:51:51;;;;;;;0.50;0.50;;;5.20;99.90;;;;;;4989157;28;20388;-86
2021/04/19 02:54:21;;;;;;;0.15;0.15;;;5.10;99.90;;;;;;4988349;28;20030;-85
2021/04/19 02:56:48;;;;;;;0.20;0.20;;;5.30;99.90;;;;;;4989052;28;20030;-84
2021/04/19 02:59:16;;;;;;;0.32;0.32;;;5.50;99.90;;;;;;4983607;28;20570;-84
2021/04/19 03:01:45;;;;;;;0.60;0.60;;;5.00;99.90;;;;;;5001240;28;20170;-85
2021/04/19 03:04:15;;;;;;;1.75;1.02;;;4.90;99.90;;;;;;5000806;28;20029;-85
2021/04/19 03:06:44;;;;;;;0.25;0.25;;;4.90;99.90;;;;;;4995240;28;20472;-87
2021/04/19 03:09:14;;;;;;;1.20;0.98;;;5.10;99.90;;;;;;5005350;28;20065;-86
2021/04/19 03:11:49;;;;;;;1.15;1.05;;;5.20;99.90;;;;;;4994480;28;20034;-85
2021/04/19 03:14:16;;;;;;;0.80;0.80;;;5.00;99.90;;;;;;4999594;28;20036;-87
2021/04/19 03:16:47;;;;;;;0.20;0.20;;;5.20;99.90;;;;;;5002840;28;20071;-86
2021/04/19 03:19:16;;;;;;;0.30;0.30;;;4.80;99.90;;;;;;5001973;28;20121;-85
2021/04/19 03:21:43;;;;;;;0.10;0.10;;;4.40;99.90;;;;;;5008765;28;20049;-86
2021/04/19 03:24:11;;;;;;;0.82;0.82;;;5.50;99.90;;;;;;5004750;28;20117;-85
2021/04/19 03:26:39;;;;;;;0.47;0.47;;;5.40;99.90;;;;;;5002459;28;20038;-86
2021/04/19 03:29:06;;;;;;;0.30;0.30;;;5.00;99.90;;;;;;5003117;28;20018;-85
2021/04/19 03:31:40;;;;;;;0.47;0.47;;;5.20;99.90;;;;;;4998488;28;20152;-86
2021/04/19 03:34:12;;;;;;;0.70;0.70;;;5.00;99.90;;;;;;5005332;28;20401;-85
2021/04/19 03:36:40;;;;;;;0.20;0.20;;;5.10;99.90;;;;;;5006867;28;20041;-85
2021/04/19 03:39:07;;;;;;;0.43;0.43;;;5.00;99.90;;;;;;5008160;28;20184;-86
2021/04/19 03:41:39;;;;;;;0.80;0.80;;;5.30;99.90;;;;;;4999561;28;20037;-85
2021/04/19 03:44:06;;;;;;;0.68;0.68;;;5.20;99.90;;;;;;5005700;28;20032;-85
2021/04/19 03:46:32;;;;;;;;;;;5.00;99.90;;;;;;5008960;28;20041;-85
2021/04/19 03:49:18;;;;;;;;;;;5.00;99.90;;;;;;5003441;28;19916;-86
2021/04/19 03:51:46;;;;;;;0.10;0.10;;;4.90;99.90;;;;;;4992549;28;19909;-86
2021/04/19 03:54:14;;;;;;;0.30;0.30;;;4.90;99.90;;;;;;4992434;28;20041;-86
2021/04/19 03:56:41;;;;;;;1.83;1.35;;;4.90;99.90;;;;;;4999145;28;20580;-86
2021/04/19 03:59:13;;;;;;;0.50;0.50;;;4.70;99.90;;;;;;5008374;28;20116;-86
2021/04/19 04:01:40;;;;;;;1.23;1.00;;;4.80;99.90;;;;;;5004016;28;20568;-86
2021/04/19 04:04:08;;;;;;;0.28;0.28;;;4.70;99.90;;;;;;4997288;28;20070;-86
2021/04/19 04:06:35;;;;;;;0.65;0.65;;;4.80;99.90;;;;;;4997946;28;20034;-86
2021/04/19 04:09:02;;;;;;;0.57;0.57;;;4.80;99.90;;;;;;4993774;28;20031;-86
2021/04/19 04:11:28;;;;;;;0.30;0.30;;;4.80;99.90;;;;;;5002381;28;20077;-86
2021/04/19 04:13:54;;;;;;;0.60;0.60;;;4.80;99.90;;;;;;4999294;28;20037;-86
2021/04/19 04:16:19;;;;;;;0.85;0.85;;;4.50;99.90;;;;;;5004905;28;20641;-85
2021/04/19 04:18:45;;;;;;;0.50;0.50;;;4.50;99.90;;;;;;4993794;28;20042;-84
2021/04/19 04:21:11;;;;;;;0.52;0.52;;;4.30;99.90;;;;;;4994244;28;20037;-84
2021/04/19 04:23:38;;;;;;;0.93;0.93;;;4.40;99.90;;;;;;4996060;28;20557;-85
2021/04/19 04:26:04;;;;;;;;;;;4.10;99.90;;;;;;4998839;28;20050;-85
2021/04/19 04:28:31;;;;;;;0.30;0.30;;;4.30;99.90;;;;;;5006183;28;20024;-85
2021/04/19 04:30:57;;;;;;;0.60;0.45;;;4.20;99.90;;;;;;4995812;28;20023;-84
2021/04/19 04:33:23;;;;;;;0.70;0.70;;;4.00;99.90;;;;;;5004468;28;20117;-85
2021/04/19 04:35:48;;;;;;;0.52;0.52;;;3.90;99.90;;;;;;4989760;28;20027;-86
2021/04/19 04:38:14;;;;;;;0.30;0.30;;;4.10;99.90;;;;;;5002604;28;20104;-86
2021/04/19 04:40:40;;;;;;;0.38;0.38;;;4.20;99.90;;;;;;4999776;28;20025;-86
2021/04/19 04:43:11;;;;;;;0.38;0.38;;;3.90;99.90;;;;;;5016937;28;20712;-86
2021/04/19 04:45:38;;;;;;;0.40;0.40;;;3.80;99.90;;;;;;4991513;28;20149;-85
2021/04/19 04:48:21;;;;;;;0.35;0.35;;;3.90;99.90;;;;;;4994837;28;20034;-87
2021/04/19 04:51:16;;;;;;;1.42;1.33;;;4.00;99.90;;;;;;5018279;28;20026;-85
2021/04/19 04:53:45;;;;;;;1.25;1.15;;;3.80;99.90;;;;;;4990057;28;20045;-86
2021/04/19 04:56:13;;;;;;;0.30;0.30;;;3.90;99.90;;;;;;5015154;28;20125;-87
2021/04/19 04:58:42;;;;;;;0.25;0.25;;;3.80;99.90;;;;;;5002579;28;20169;-86
2021/04/19 05:01:09;;;;;;;0.63;0.63;;;3.90;99.90;;;;;;4995797;28;20129;-86
2021/04/19 05:03:37;;;;;;;2.00;1.35;;;4.00;99.90;;;;;;4996395;28;20077;-85
2021/04/19 05:06:05;;;;;;;0.35;0.35;;;4.00;99.90;;;;;;4994553;28;20037;-85
2021/04/19 05:08:30;;;;;;;0.43;0.43;;;3.90;99.90;;;;;;4992960;28;20062;-84
2021/04/19 05:10:56;;;;;;;0.57;0.57;;;3.90;99.90;;;;;;5002804;28;20108;-84
2021/04/19 05:13:23;;;;;;;0.73;0.73;;;3.90;99.90;;;;;;4997311;28;20525;-84
2021/04/19 05:15:49;;;;;;;0.65;0.63;;;3.80;99.90;;;;;;4995582;28;20498;-84
2021/04/19 05:18:17;;;;;;;0.20;0.20;;;4.30;99.90;;;;;;5006037;28;20038;-85
2021/04/19 05:20:43;;;;;;;0.88;0.85;;;4.60;99.90;;;;;;5004269;28;20022;-85
2021/04/19 05:23:13;;;;;;;0.52;0.52;;;5.00;99.90;;;;;;4996632;28;20078;-85
2021/04/19 05:25:41;;;;;;;0.47;0.47;;;5.20;99.90;;;;;;4989833;28;20046;-84
2021/04/19 05:28:07;;;;;;;0.40;0.40;;;5.20;99.90;;;;;;4995961;28;20109;-85
2021/04/19 05:30:34;;;;;;;0.38;0.38;;;5.50;99.90;;;;;;4995386;28;20498;-84
2021/04/19 05:33:01;;;;;;;0.50;0.50;;;5.80;99.90;;;;;;4990181;28;20118;-86
2021/04/19 05:35:29;;;;;;;0.47;0.47;;;5.80;99.90;;;;;;4989795;28;20058;-85
2021/04/19 05:37:56;;;;;;;0.82;0.82;;;6.10;99.90;;;;;;4994325;28;20034;-85
2021/04/19 05:40:25;;;;;;;5.68;0.73;;;6.50;99.90;;;;;;4990243;28;20092;-85
2021/04/19 05:42:52;;;;;;;0.63;0.63;;;6.50;99.90;;;;;;4989645;28;20507;-85
2021/04/19 05:45:18;;;;;;;1.65;1.10;;;6.60;99.90;;;;;;4989528;28;20028;-84
2021/04/19 05:47:47;;;;;;;1.15;0.20;;;6.70;99.90;;;;;;5007090;28;20030;-86
2021/04/19 05:50:13;;;;;;;0.17;0.17;;;7.00;99.90;;;;;;5008830;28;20049;-85
2021/04/19 05:52:39;;;;;;;0.35;0.35;;;7.30;99.90;;;;;;5024863;28;20413;-86
2021/04/19 05:55:07;;;;;;;0.60;0.60;;;8.10;99.90;;;;;;5012662;28;20026;-85
2021/04/19 05:57:36;;;;;;;;;;;8.30;99.90;;;;;;4998469;28;20033;-84
2021/04/19 06:00:22;;;;;;;0.63;0.63;;;9.20;99.90;;;;;;5013083;28;19909;-85
2021/04/19 06:03:01;;;;;;;;;;;9.20;99.90;;;;;;5011556;28;20030;-86
2021/04/19 06:05:38;;;;;;;0.75;0.75;;;9.60;99.90;;;;;;5013020;28;19909;-84
2021/04/19 06:08:28;;;;;;;0.20;0.20;;;9.80;99.90;;;;;;5012033;28;20025;-86
2021/04/19 06:11:18;;;;;;;0.60;0.60;;;9.80;99.90;;;;;;5009632;28;20091;-85
2021/04/19 06:13:46;;;;;;;0.10;0.10;;;10.00;99.90;;;;;;5012382;28;20450;-86
2021/04/19 06:16:14;;;;;;;1.83;0.50;;;10.00;99.90;;;;;;5012521;28;20508;-86
2021/04/19 06:18:43;;;;;;;0.25;0.25;;;10.20;99.90;;;;;;5011716;28;20109;-87
2021/04/19 06:21:10;;;;;;;3.30;0.75;;;10.10;99.90;;;;;;5008629;28;20065;-87
2021/04/19 06:23:36;;;;;;;0.73;0.50;;;10.90;99.90;;;;;;5012439;28;20175;-86
2021/04/19 06:26:02;;;;;;;0.28;0.28;;;10.90;99.90;;;;;;5005458;28;20023;-86
2021/04/19 06:28:28;;;;;;;1.67;0.93;;;10.20;99.90;;;;;;5012164;28;20552;-86
2021/04/19 06:30:55;;;;;;;0.25;0.25;;;11.20;99.80;;;;;;5020188;28;20076;-88
2021/04/19 06:33:21;;;;;;;;;;;12.00;99.00;;;;;;5012465;28;20918;-89
2021/04/19 06:35:48;;;;;;;3.30;0.73;;;11.50;99.10;;;;;;5012415;28;19988;-88
2021/04/19 06:38:14;;;;;;;;;;;10.90;98.70;;;;;;5012219;28;20033;-89
2021/04/19 06:40:42;;;;;;;0.40;0.40;;;11.50;98.50;;;;;;5010057;28;19964;-89
2021/04/19 06:43:08;;;;;;;1.38;1.10;;;11.40;97.90;;;;;;5010282;28;20030;-89
2021/04/19 06:45:37;;;;;;;4.25;0.43;;;11.90;97.50;;;;;;5010701;28;20457;-90
2021/04/19 06:48:08;;;;;;;0.50;0.38;;;11.80;96.90;;;;;;5010811;28;20084;-90
2021/04/19 06:50:35;;;;;;;0.25;0.22;;;12.40;96.50;;;;;;5011756;28;20021;-90
2021/04/19 06:53:01;;;;;;;0.65;0.60;;;13.40;99.90;;;;;;5011497;28;20137;-89
2021/04/19 06:55:27;;;;;;;0.95;0.35;;;13.70;95.20;;;;;;5011644;28;20037;-90
2021/04/19 06:57:59;;;;;;;1.98;1.00;;;13.80;94.70;;;;;;5010418;28;20057;-89
2021/04/19 07:00:27;;;;;;;0.50;0.50;;;14.30;94.80;;;;;;5010166;28;20030;-89
2021/04/19 07:02:55;;;;;;;0.65;0.65;;;15.00;93.00;;;;;;5009614;28;20030;-89
2021/04/19 07:05:26;;;;;;;3.72;0.90;;;15.40;91.10;;;;;;5011321;28;20375;-89
2021/04/19 07:08:18;;;;;;;1.60;1.33;;;15.20;90.80;;;;;;5011305;28;20025;-88
2021/04/19 07:10:45;;;;;;;0.35;0.35;;;14.40;91.10;;;;;;4985806;28;20050;-88
2021/04/19 07:13:14;;;;;;;0.30;0.30;;;14.00;94.70;;;;;;5010388;28;20460;-89
2021/04/19 07:15:41;;;;;;;0.45;0.45;;;13.80;93.80;;;;;;5009714;28;20061;-89
2021/04/19 07:18:08;;;;;;;0.35;0.35;;;14.10;93.20;;;;;;5011477;28;20088;-88
2021/04/19 07:20:35;;;;;;;0.85;0.85;;;15.50;91.20;;;;;;4997796;28;20106;-88
2021/04/19 07:23:01;;;;;;;5.47;1.20;;;15.00;91.80;;;;;;5011162;28;20403;-85
2021/04/19 07:25:28;;;;;;;0.57;0.30;;;15.30;91.70;;;;;;5011517;28;20033;-89
2021/04/19 07:27:54;;;;;;;0.60;0.60;;;15.30;89.30;;;;;;5009140;28;20026;-89
2021/04/19 07:30:20;;;;;;;0.68;0.68;;;16.10;86.70;;;;;;5011390;28;20064;-89
2021/04/19 07:32:46;;;;;;;0.40;0.40;;;15.60;90.80;;;;;;5010496;28;20463;-89
2021/04/19 07:35:13;;;;;;;0.37;0.37;;;16.60;96.00;;;;;;5011054;28;20022;-86
2021/04/19 07:37:53;;;;;;;;;;;15.50;91.20;;;;;;5008844;28;20030;-87
2021/04/19 07:40:33;;;;;;;0.55;0.20;;;16.10;90.60;;;;;;5011031;28;20001;-89
2021/04/19 07:43:20;;;;;;;0.32;0.32;;;18.50;81.80;;;;;;5011240;28;20094;-89
2021/04/19 07:46:09;;;;;;;0.38;0.38;;;20.60;73.40;;;;;;5011085;28;20034;-86
2021/04/19 07:48:47;;;;;;;2.83;0.50;;;20.00;71.60;;;;;;4993876;28;20101;-87
2021/04/19 07:51:34;;;;;;;0.88;0.75;;;20.60;69.60;;;;;;4991591;28;20053;-87
2021/04/19 07:54:22;;;;;;;0.10;0.10;;;21.20;65.70;;;;;;4992456;28;20065;-87
2021/04/19 07:56:53;;;;;;;1.75;0.63;;;21.30;64.90;;;;;;4996734;28;20030;-87
2021/04/19 07:59:29;;;;;;;0.20;0.20;;;20.90;67.70;;;;;;5010843;28;20502;-86
2021/04/19 08:01:55;;;;;;;0.05;0.05;;;21.10;62.40;;;;;;5010523;28;20057;-85
2021/04/19 08:04:21;;;;;;;0.45;0.38;;;22.50;58.90;;;;;;5010792;28;20056;-86
2021/04/19 08:06:51;;;;;;;0.43;0.40;;;23.60;56.10;;;;;;5002135;28;20018;-88
2021/04/19 08:09:29;;;;;;;0.30;0.30;;;20.80;68.20;;;;;;5020223;28;20034;-86
2021/04/19 08:11:58;;;;;;;0.35;0.35;;;19.40;71.90;;;;;;5002963;28;20526;-86
2021/04/19 08:14:27;;;;;;;0.43;0.43;;;19.80;71.40;;;;;;5003726;28;20033;-87
2021/04/19 08:17:12;;;;;;;0.28;0.28;;;20.80;67.40;;;;;;5002074;28;20030;-87
2021/04/19 08:19:40;;;;;;;0.28;0.28;;;21.00;68.70;;;;;;5001841;28;20026;-88
2021/04/19 08:22:16;;;;;;;0.52;0.52;;;21.50;65.20;;;;;;5002536;28;20062;-86
2021/04/19 08:24:42;;;;;;;0.38;0.38;;;21.60;65.10;;;;;;5003076;28;20034;-86
2021/04/19 08:27:16;;;;;;;;;;;21.10;69.10;;;;;;4992048;28;20027;-87
2021/04/19 08:29:45;;;;;;;0.45;0.45;;;20.20;66.40;;;;;;4990694;28;19917;-87
2021/04/19 08:32:16;;;;;;;0.40;0.40;;;20.50;69.10;;;;;;5005730;28;20026;-86
2021/04/19 08:34:42;;;;;;;0.47;0.40;;;20.10;67.40;;;;;;4990622;28;20494;-87
2021/04/19 08:37:11;;;;;;;0.68;0.22;;;21.60;63.80;;;;;;5019275;28;20017;-87
2021/04/19 08:39:39;;;;;;;0.47;0.47;;;21.60;62.60;;;;;;5006353;28;20037;-87
2021/04/19 08:42:06;;;;;;;2.17;0.60;;;21.60;60.50;;;;;;5002838;28;20029;-88
2021/04/19 08:44:33;;;;;;;0.63;0.28;;;22.40;59.50;;;;;;5007316;28;20036;-88
2021/04/19 08:47:01;;;;;;;0.90;0.80;;;22.00;59.40;;;;;;5007618;28;20481;-88
2021/04/19 08:49:31;;;;;;;0.85;0.85;;;21.10;60.20;;;;;;5006559;28;20049;-88
2021/04/19 08:51:58;;;;;;;0.55;0.55;;;23.20;57.20;;;;;;5005345;28;20096;-89
2021/04/19 08:54:25;;;;;;;0.50;0.50;;;22.10;59.40;;;;;;5001076;28;20034;-87
2021/04/19 08:56:51;;;;;;;3.72;0.93;;;22.70;58.80;;;;;;5003044;28;20517;-87
2021/04/19 08:59:19;;;;;;;7.85;1.77;;;22.10;57.80;;;;;;5003087;28;20034;-87
2021/04/19 09:01:46;;;;;;;0.40;0.40;;;21.50;57.00;;;;;;5018286;28;20088;-87
2021/04/19 09:04:12;;;;;;;0.10;0.10;;;20.20;63.90;;;;;;4999707;28;20022;-87
2021/04/19 09:06:45;;;;;;;0.37;0.37;;;21.20;61.30;;;;;;4999079;28;20025;-86
2021/04/19 09:09:33;;;;;;;0.30;0.30;;;24.60;48.90;;;;;;4997060;28;20261;-87
2021/04/19 09:12:21;;;;;;;0.80;0.80;;;26.70;46.30;;;;;;5002225;28;20034;-87
2021/04/19 09:14:47;;;;;;;0.40;0.40;;;25.10;49.90;;;;;;4997476;28;20030;-86
2021/04/19 09:17:29;;;;;;;1.55;0.68;;;21.50;54.30;;;;;;5000066;28;20026;-87
2021/04/19 09:19:59;;;;;;;0.35;0.25;;;23.40;52.70;;;;;;4995678;28;20022;-87
2021/04/19 09:22:29;;;;;;;0.75;0.40;;;23.90;51.30;;;;;;4996350;28;20038;-86
2021/04/19 09:25:07;;;;;;;1.60;1.33;;;21.20;53.80;;;;;;5012272;28;20080;-86
2021/04/19 09:27:53;;;;;;;0.47;0.47;;;22.90;52.20;;;;;;4990772;28;20544;-86
2021/04/19 09:30:32;;;;;;;1.58;1.10;;;22.70;53.50;;;;;;5016681;28;20544;-86
2021/04/19 09:33:20;;;;;;;0.80;0.77;;;22.30;55.60;;;;;;5000461;28;20029;-85
2021/04/19 09:35:50;;;;;;;0.52;0.52;;;21.30;57.40;;;;;;4998614;28;20022;-85
2021/04/19 09:38:31;;;;;;;0.55;0.52;;;21.70;50.90;;;;;;5002043;28;20033;-84
2021/04/19 09:41:05;;;;;;;0.70;0.65;;;21.70;54.20;;;;;;5016037;28;20033;-85
2021/04/19 09:43:42;;;;;;;0.82;0.82;;;21.90;54.90;;;;;;4998097;28;20044;-85
2021/04/19 09:46:16;;;;;;;0.20;0.20;;;21.40;55.70;;;;;;4999350;28;20017;-86
2021/04/19 09:49:01;;;;;;;0.45;0.45;;;21.20;56.20;;;;;;5003524;28;20408;-85
2021/04/19 09:51:36;;;;;;;1.05;1.00;;;22.40;52.00;;;;;;5005615;28;20529;-84
2021/04/19 09:54:17;;;;;;;0.30;0.30;;;22.30;52.80;;;;;;5004571;28;20053;-85
2021/04/19 09:56:57;;;;;;;0.40;0.40;;;22.20;51.30;;;;;;5002560;28;20053;-85
2021/04/19 09:59:27;;;;;;;0.13;0.13;;;21.90;53.00;;;;;;4996145;28;20033;-84
2021/04/19 10:01:54;;;;;;;0.40;0.40;;;25.10;43.60;;;;;;4992661;28;20427;-84
2021/04/19 10:04:21;;;;;;;0.47;0.47;;;27.70;38.30;;;;;;4993381;28;20121;-84
2021/04/19 10:06:52;;;;;;;0.30;0.30;;;25.30;42.80;;;;;;4997674;28;20410;-82
2021/04/19 10:09:27;;;;;;;0.52;0.52;;;24.70;43.80;;;;;;5001400;28;20516;-84
2021/04/19 10:12:00;;;;;;;0.25;0.25;;;25.30;41.20;;;;;;4996136;28;20104;-83
2021/04/19 10:14:37;;;;;;;0.20;0.20;;;24.90;41.20;;;;;;5001440;28;20149;-83
2021/04/19 10:17:15;;;;;;;0.20;0.20;;;26.10;39.20;;;;;;4996869;28;20076;-82
2021/04/19 10:19:45;;;;;;;0.70;0.70;;;25.80;40.90;;;;;;5017570;28;20508;-87
2021/04/19 10:22:12;;;;;;;1.67;0.70;;;25.40;39.40;;;;;;4991392;28;20052;-85
2021/04/19 10:24:52;;;;;;;0.73;0.68;;;22.60;39.90;;;;;;4990310;28;20101;-85
2021/04/19 10:27:31;;;;;;;0.10;0.10;;;23.80;42.80;;;;;;5007429;28;20839;-85
2021/04/19 10:30:13;;;;;;;0.25;0.25;;;28.00;33.80;;;;;;5000227;28;20023;-84
2021/04/19 10:32:40;;;;;;;0.55;0.55;;;24.70;39.40;;;;;;4996683;28;20126;-85
2021/04/19 10:35:29;;;;;;;0.40;0.40;;;24.30;38.90;;;;;;5002096;28;20088;-83
2021/04/19 10:37:55;;;;;;;0.45;0.45;;;25.40;37.50;;;;;;4989224;28;20113;-84
2021/04/19 10:40:21;;;;;;;0.20;0.20;;;24.90;40.30;;;;;;5006844;28;20133;-84
2021/04/19 10:42:46;;;;;;;0.47;0.40;;;22.50;47.40;;;;;;5002009;28;20033;-84
2021/04/19 10:45:13;;;;;;;2.23;0.50;;;21.80;45.90;;;;;;5000333;28;20018;-85
2021/04/19 10:47:39;;;;;;;0.20;0.20;;;21.90;43.40;;;;;;4996424;28;20030;-85
2021/04/19 10:50:05;;;;;;;1.83;0.53;;;23.80;41.10;;;;;;5000575;28;20790;-86
2021/04/19 10:52:37;;;;;;;0.25;0.25;;;23.50;43.30;;;;;;5004607;28;20760;-86
2021/04/19 10:55:08;;;;;;;0.38;0.38;;;23.70;45.40;;;;;;4997948;28;20125;-84
2021/04/19 10:57:36;;;;;;;0.30;0.30;;;23.40;43.00;;;;;;5000637;28;20141;-85
2021/04/19 11:00:05;;;;;;;0.20;0.20;;;23.70;44.00;;;;;;4999336;28;20096;-87
2021/04/19 11:02:32;;;;;;;2.08;0.45;;;23.30;44.60;;;;;;5001429;28;20026;-88
2021/04/19 11:04:59;;;;;;;0.30;0.30;;;22.50;40.00;;;;;;4994088;28;20050;-88
2021/04/19 11:07:32;;;;;;;;;;;22.10;47.40;;;;;;4999326;28;20040;-86
2021/04/19 11:10:22;;;;;;;0.25;0.25;;;22.90;44.90;;;;;;5001842;28;19914;-88
2021/04/19 11:12:59;;;;;;;0.17;0.17;;;22.70;44.80;;;;;;5000097;28;20057;-84
2021/04/19 11:15:32;;;;;;;0.70;0.57;;;22.40;45.50;;;;;;5003472;28;20033;-87
2021/04/19 11:18:00;;;;;;;1.52;1.05;;;22.30;47.90;;;;;;4995593;28;20506;-86
2021/04/19 11:20:30;;;;;;;4.50;0.65;;;22.90;41.90;;;;;;5000779;28;20541;-86
2021/04/19 11:22:59;;;;;;;0.57;0.57;;;23.10;42.50;;;;;;5003234;28;20042;-86
2021/04/19 11:25:30;;;;;;;0.10;0.10;;;22.40;45.80;;;;;;5002181;28;20022;-85
2021/04/19 11:28:19;;;;;;;0.57;0.57;;;23.40;44.50;;;;;;5004309;28;20493;-85
2021/04/19 11:30:50;;;;;;;0.35;0.35;;;24.90;40.50;;;;;;4999439;28;20022;-85
2021/04/19 11:33:27;;;;;;;0.20;0.20;;;24.10;42.10;;;;;;5004231;28;20033;-85
2021/04/19 11:36:01;;;;;;;0.22;0.22;;;18.00;50.60;;;;;;5001608;28;20041;-85
2021/04/19 11:38:40;;;;;;;0.10;0.10;;;17.50;52.60;;;;;;5001116;28;20045;-84
2021/04/19 11:41:14;;;;;;;0.37;0.37;;;17.00;53.90;;;;;;5020234;28;20037;-85
2021/04/19 11:43:53;;;;;;;0.98;0.93;;;17.20;53.40;;;;;;4997605;28;20053;-85
2021/04/19 11:46:21;;;;;;;0.20;0.20;;;17.40;53.50;;;;;;5015008;28;20749;-84
2021/04/19 11:48:49;;;;;;;0.10;0.10;;;16.40;54.50;;;;;;4999761;28;20042;-85
2021/04/19 11:51:17;;;;;;;1.08;0.98;;;16.70;54.80;;;;;;5013119;28;20029;-84
2021/04/19 11:53:45;;;;;;;0.60;0.40;;;17.50;52.80;;;;;;5001181;28;20061;-84
2021/04/19 11:56:12;;;;;;;0.90;0.63;;;17.60;52.60;;;;;;4995892;28;20095;-84
2021/04/19 11:58:42;;;;;;;;;;;17.50;52.80;;;;;;4994536;28;20029;-84
2021/04/19 12:01:10;;;;;;;0.20;0.20;;;17.30;53.80;;;;;;4992932;28;19913;-84
2021/04/19 12:03:40;;;;;;;0.20;0.20;;;16.70;54.60;;;;;;5001166;28;20037;-85
2021/04/19 12:06:07;;;;;;;0.17;0.17;;;17.30;53.30;;;;;;5004902;28;20023;-84
2021/04/19 12:08:34;;;;;;;0.22;0.22;;;17.90;52.50;;;;;;4997874;28;20054;-84
2021/04/19 12:11:00;;;;;;;0.32;0.32;;;17.10;53.80;;;;;;4999970;28;20104;-85
2021/04/19 12:13:26;;;;;;;0.17;0.17;;;17.30;53.00;;;;;;5002600;28;20037;-87
2021/04/19 12:15:53;;;;;;;0.10;0.10;;;17.10;53.30;;;;;;4996215;28;20193;-85
2021/04/19 12:18:23;;;;;;;0.10;0.10;;;17.30;52.60;;;;;;5001066;28;20045;-87
2021/04/19 12:20:50;;;;;;;0.20;0.20;;;17.90;52.40;;;;;;5001051;28;20026;-85
2021/04/19 12:23:25;;;;;;;0.55;0.55;;;17.50;52.40;;;;;;4995701;28;20054;-86
2021/04/19 12:26:02;;;;;;;0.10;0.10;;;17.50;52.80;;;;;;4999621;28;20022;-86
2021/04/19 12:28:28;;;;;;;0.20;0.20;;;17.40;53.60;;;;;;4998025;28;20022;-86
2021/04/19 12:30:55;;;;;;;0.20;0.20;;;17.60;52.80;;;;;;4998281;28;20022;-87
2021/04/19 12:33:25;;;;;;;0.35;0.35;;;18.30;51.40;;;;;;4993612;28;20384;-84
2021/04/19 12:35:51;;;;;;;0.20;0.15;;;18.50;49.20;;;;;;4998346;28;20036;-84
2021/04/19 12:38:17;;;;;;;0.07;0.07;;;19.10;49.00;;;;;;5000952;28;20060;-84
2021/04/19 12:40:47;;;;;;;0.35;0.35;;;18.20;50.50;;;;;;5002046;28;20192;-85
2021/04/19 12:43:13;;;;;;;0.22;0.22;;;17.40;52.90;;;;;;4995866;28;20077;-84
2021/04/19 12:45:40;;;;;;;0.20;0.20;;;17.50;52.80;;;;;;5004723;28;20818;-84
2021/04/19 12:48:09;;;;;;;0.17;0.17;;;17.60;52.00;;;;;;5003003;28;20069;-84
2021/04/19 12:50:41;;;;;;;0.43;0.35;;;17.50;52.60;;;;;;5018397;28;20704;-84
2021/04/19 12:53:08;;;;;;;0.20;0.20;;;17.50;52.60;;;;;;5005448;28;20018;-88
2021/04/19 12:55:35;;;;;;;;;;;17.50;52.30;;;;;;4995981;28;20030;-85
2021/04/19 12:58:01;;;;;;;0.20;0.20;;;17.90;50.70;;;;;;4995753;28;19913;-85
2021/04/19 13:00:27;;;;;;;0.17;0.17;;;17.50;51.60;;;;;;5001859;28;20038;-85
2021/04/19 13:02:54;;;;;;;0.10;0.10;;;17.30;52.10;;;;;;5002206;28;20032;-85
2021/04/19 13:05:20;;;;;;;0.10;0.10;;;17.40;52.90;;;;;;5002969;28;20406;-85
2021/04/19 13:07:48;;;;;;;0.52;0.52;;;17.30;53.00;;;;;;5021237;28;20056;-88
2021/04/19 13:10:15;;;;;;;0.75;0.52;;;17.70;51.40;;;;;;5001060;28;20018;-87
2021/04/19 13:12:41;;;;;;;0.10;0.10;;;17.50;51.80;;;;;;5003164;28;20037;-87